TAF Text Data
IDs:
Format:
Raw Decoded Include METAR

Data at: 2339 UTC 26 Feb 2020

Region: TOP
KATL 262320Z 2700/2806 30015G25KT P6SM SCT025 BKN035
  FM271400 31013G23KT P6SM SCT060
  FM271600 31012G20KT P6SM FEW250
  FM280100 28006KT P6SM SKC


KBOS 262334Z 2700/2806 08006KT 1/2SM FG OVC003
  FM270400 08007KT 1 1/2SM BR OVC005
  FM270700 08012G20KT 2SM -RA BR OVC008
  FM270900 09016G25KT 3/4SM +RA BR OVC006
  FM271400 14016G27KT 3SM -RA BR OVC012
  FM271600 20015G28KT P6SM BKN025
  FM271800 25015G28KT P6SM SCT045


KBWI 262327Z 2700/2806 11009KT 3SM BR SCT001 OVC003
  FM270400 15010G17KT 2SM SHRA SCT003 OVC015
  FM270600 28013G22KT 4SM -SHRA SCT008 OVC020
  FM270800 27014KT P6SM SCT035 BKN050
  FM270900 27014G21KT P6SM FEW025 SCT080
  FM271200 27015G29KT P6SM FEW250
  FM271800 27019G32KT P6SM FEW045 FEW250
  FM280200 27014G22KT P6SM SKC


KCLE 262215Z 2622/2724 33008KT 2SM -SN BR OVC005
  TEMPO 2622/2701 3/4SM -SN BR
  FM270100 31015G30KT 3SM -SHSN BR OVC005
  FM270900 29020G35KT 3SM -SHSN BR OVC010
  FM271200 29020G35KT P6SM OVC015
  FM272000 27025G40KT 5SM -SHSN BR OVC040


KCLT 262324Z 2700/2806 24012G20KT P6SM VCSH SCT035 BKN100
  FM270200 26013G20KT P6SM BKN045
  FM270400 28012G19KT P6SM FEW050 BKN200
  FM270900 29009KT P6SM SCT250
  FM271400 30014G22KT P6SM FEW250
  FM272300 28009KT P6SM SKC


KCVG 262332Z 2700/2806 30015G22KT 2SM -SN FEW015 BKN027 OVC060
  FM270300 31013G28KT P6SM -SN OVC025
  FM270600 30013G26KT P6SM VCSH OVC040
  FM271300 28012G22KT P6SM BKN050
  FM271900 27016G27KT P6SM BKN050
  FM272300 26009KT P6SM SCT060


KDCA 262327Z 2700/2806 14009KT 2SM BR SCT003 OVC005
  FM270400 18011G18KT 2SM SHRA SCT003 OVC015
  FM270500 25012G23KT 3SM -SHRA SCT010 OVC020
  FM270600 28013G28KT 5SM -SHRA SCT025 OVC060
  FM270800 28013G24KT P6SM SCT045 BKN070
  FM271000 28013G23KT P6SM FEW035 SCT250


KDEN 262304Z 2623/2724 07008KT P6SM SCT140
  FM270500 20010KT P6SM FEW140
  FM271400 26006KT P6SM FEW100
  FM271600 35018G26KT P6SM FEW100


KDFW 262320Z 2700/2806 33014KT P6SM SKC
  FM270100 33009KT P6SM SKC
  FM270900 24005KT P6SM SKC
  FM271900 21012KT P6SM SKC


KDTW 262322Z 2700/2806 34015G25KT 1SM -SN BR SCT008 OVC015
  TEMPO 2700/2702 1/2SM FG VV007
  FM270200 33014G24KT 6SM -SHSN OVC020
  FM270500 31016G25KT P6SM OVC025
  FM271300 29018G28KT P6SM SCT025 OVC035
  PROB30 2718/2721 1 1/2SM -SHSN OVC015


KEWR 262330Z 2700/2806 09008KT 6SM -RA BR OVC009
  FM270200 09011KT 2SM -RA BR OVC007
  FM270500 10013KT 2SM SHRA BR OVC007
  FM270700 15014G20KT 2SM SHRA BR OVC007
  FM270900 22016G25KT 6SM BR VCSH BKN030
  FM271100 25018G30KT P6SM SCT050
  FM271600 27022G35KT P6SM SCT050
  FM280200 27018G28KT P6SM FEW050


KFLL 262330Z 2700/2806 20012KT P6SM VCSH SCT028 BKN045 BKN100
  TEMPO 2700/2704 4SM SHRA BKN035
  FM270500 31010KT P6SM VCSH SCT025 BKN035
  FM271100 32012KT P6SM SCT020 BKN035
  FM271700 34012KT P6SM FEW035
  FM272200 35008KT P6SM FEW035


KIAD 262327Z 2700/2806 13007KT 2SM BR SCT001 OVC003
  FM270300 16009KT 2SM SHRA SCT001 OVC003
  FM270400 19010G19KT 2SM SHRA SCT003 OVC010
  FM270500 26011G21KT 5SM -SHRA SCT008 OVC010
  FM270600 29012G25KT P6SM -SHRA SCT020 OVC025
  FM270800 28013G21KT P6SM FEW080 SCT250
  FM280200 27012KT P6SM SKC


KIAH 262324Z 2700/2806 35010G20KT P6SM SCT060
  FM270200 33009KT P6SM SKC
  FM270500 VRB04KT P6SM SKC
  FM271700 26005KT P6SM SKC


KJFK 262330Z 2700/2806 09010KT 6SM -RA BR OVC012
  FM270200 09011KT 2SM -RA BR OVC007
  FM270600 11017G24KT 1SM SHRA BR OVC007
  FM270800 16018G28KT 1SM SHRA BR OVC007
  FM271000 22020G30KT 6SM BR VCSH BKN030
  FM271200 25021G33KT P6SM SCT050
  FM271600 27022G35KT P6SM SCT050
  FM280300 27022G30KT P6SM FEW050


KLAS 262320Z 2700/2806 10005KT P6SM SKC
  FM270300 21006KT P6SM SKC
  FM271700 VRB05KT P6SM SKC
  FM280300 24005KT P6SM SKC


KLAX 262057Z 2621/2724 26008KT P6SM FEW160 SCT180
  FM270400 VRB03KT P6SM SKC
  FM271200 07004KT P6SM SKC
  FM272000 26010KT P6SM SKC


KLGA 262330Z 2700/2806 07009KT 6SM -RA BR OVC012
  FM270200 09013KT 2SM -RA BR OVC007
  FM270600 10016G23KT 1SM SHRA BR OVC007
  FM270800 15017G25KT 1SM SHRA BR OVC007
  FM271000 22018G28KT 6SM BR VCSH BKN030
  FM271200 25020G32KT P6SM SCT050
  FM271600 27022G35KT P6SM SCT050
  FM280300 27022G30KT P6SM FEW050


KMCO 262216Z 2622/2724 33012KT P6SM VCSH FEW015 BKN045 BKN060
  FM270600 31013KT P6SM SCT030 OVC110
  FM271200 32010KT P6SM SKC


KMDW 262320Z 2700/2806 33013G20KT P6SM -SN SCT025 OVC035
  FM270700 31012KT P6SM BKN040
  FM271600 29013G19KT P6SM SCT025 BKN040


KMEM 262335Z 2700/2806 32009KT P6SM SCT040
  FM270400 31004KT P6SM SKC
  FM271500 25008KT P6SM SCT250
  FM271800 24010G16KT P6SM FEW250


KMIA 262330Z 2700/2806 20010KT P6SM VCSH SCT025 BKN060 BKN100
  TEMPO 2700/2704 4SM SHRA BKN030
  FM270500 31008KT P6SM VCSH SCT025 BKN035
  FM271100 32010KT P6SM SCT020 BKN035
  FM271600 33015KT P6SM FEW035 BKN045
  FM271900 34010KT P6SM FEW035
  FM280000 32005KT P6SM SKC


KMSP 262323Z 2700/2806 33008KT P6SM BKN050
  TEMPO 2700/2703 6SM -SHSN
  FM270700 30003KT P6SM SCT022 OVC035
  FM271800 33004KT P6SM BKN025 OVC040


KORD 262320Z 2700/2806 33013G20KT P6SM -SN SCT025 OVC035
  FM270700 31012KT P6SM BKN040
  FM271600 29013G19KT P6SM SCT025 BKN040


KPDX 262320Z 2700/2724 00000KT P6SM FEW025 FEW040 SCT250
  FM271500 08002KT 1/2SM FG BKN007
  FM271800 00000KT 4SM BR BKN250
  FM272100 00000KT P6SM FEW250


KPHL 262333Z 2700/2806 11008KT P6SM OVC012
  FM270300 12012KT 4SM SHRA BR OVC009
  TEMPO 2704/2707 2SM SHRA BR OVC004
  FM270700 25014G24KT 6SM -SHRA BKN025
  FM271000 26015G27KT P6SM SCT030
  FM271500 28020G32KT P6SM SCT040


KPHX 262320Z 2700/2806 07007KT P6SM SKC
  FM272200 VRB04KT P6SM FEW250
  FM280100 27004KT P6SM FEW250


KPIT 262320Z 2700/2806 27008KT 3SM -RA BR OVC008
  FM270400 27010G18KT 3SM -SHSN OVC008
  FM270700 27014G22KT 6SM -SHSN OVC012
  FM271200 28015G23KT P6SM OVC015
  FM271900 27016G30KT P6SM BKN035


KSAN 262321Z 2700/2806 25007KT P6SM SCT250
  FM270200 VRB04KT P6SM SCT250
  FM272000 30008KT P6SM BKN250
  FM280200 VRB04KT P6SM BKN250


KSEA 262320Z 2700/2806 20006KT P6SM SCT025 SCT040 SCT250
  TEMPO 2700/2704 BKN025
  FM270600 18004KT P6SM BKN020 BKN050
  FM270900 18003KT P6SM OVC015
  FM271800 18005KT P6SM BKN020 OVC040
  FM272100 20005KT P6SM SCT030 BKN050


KSFO 262332Z 2700/2806 30009KT P6SM FEW200
  FM270500 28005KT P6SM FEW200
  FM270900 VRB03KT P6SM FEW200
  FM272300 31007KT P6SM SKC
  FM280400 VRB03KT P6SM SKC


KSLC 262320Z 2700/2806 35005KT P6SM FEW100 BKN250
  FM270200 15006KT P6SM SCT250
  FM271800 34006KT P6SM FEW250


KSTL 262135Z 2622/2724 32014G20KT P6SM VCSH BKN040
  FM270000 32010KT P6SM BKN060
  FM271000 29006KT P6SM SKC


KTPA 262320Z 2700/2806 34012KT 6SM -RA SCT015 OVC035
  TEMPO 2700/2704 4SM RA SCT007 BKN015
  FM270400 33012KT P6SM VCSH FEW007 SCT015 OVC035
  FM270600 33012G18KT P6SM SCT015 BKN040
  FM271500 33012G18KT P6SM SCT250
  FM272200 32012KT P6SM FEW250
  FM280100 34004KT P6SM SKC